Time;durP1;ratioP1;P1;durP2;ratioP2;P2;SDS_P1;SDS_P2;PMS_P1;PMS_P2;Temp;Humidity;BMP_temperature;BMP_pressure;BME280_temperature;BME280_humidity;BME280_pressure;Samples;Min_cycle;Max_cycle;Signal;HPM_P1;HPM_P2
2022/04/20 00:01:25;;;;;;;1.40;1.05;;;9.10;99.90;;;;;;5091577;28;20085;-80
2022/04/20 00:03:51;;;;;;;1.30;1.10;;;9.10;99.90;;;;;;5087053;28;20387;-80
2022/04/20 00:06:17;;;;;;;1.35;1.15;;;9.10;99.90;;;;;;5085948;28;20024;-80
2022/04/20 00:08:42;;;;;;;1.60;1.20;;;9.00;99.90;;;;;;5076385;28;20024;-79
2022/04/20 00:11:08;;;;;;;1.15;0.90;;;9.10;99.90;;;;;;5089166;28;20478;-80
2022/04/20 00:13:35;;;;;;;0.80;0.70;;;9.00;99.90;;;;;;5091554;28;20080;-80
2022/04/20 00:16:01;;;;;;;1.45;0.80;;;9.00;99.90;;;;;;5089573;28;20028;-79
2022/04/20 00:18:26;;;;;;;0.85;0.68;;;9.00;99.90;;;;;;5087724;28;20028;-79
2022/04/20 00:20:52;;;;;;;0.70;0.70;;;9.00;99.90;;;;;;5089451;28;20558;-79
2022/04/20 00:23:18;;;;;;;0.82;0.75;;;9.00;99.90;;;;;;5090161;28;20032;-79
2022/04/20 00:25:43;;;;;;;0.73;0.70;;;9.00;99.90;;;;;;5071557;28;20415;-80
2022/04/20 00:28:09;;;;;;;0.70;0.70;;;9.00;99.90;;;;;;5086659;28;20409;-79
2022/04/20 00:30:35;;;;;;;0.68;0.68;;;9.00;99.90;;;;;;5078439;28;20083;-79
2022/04/20 00:33:01;;;;;;;0.70;0.70;;;9.00;99.90;;;;;;5068984;28;20495;-80
2022/04/20 00:35:27;;;;;;;0.70;0.70;;;8.90;99.90;;;;;;5087646;28;20031;-80
2022/04/20 00:37:53;;;;;;;1.27;1.00;;;8.90;99.90;;;;;;5089419;28;20035;-80
2022/04/20 00:40:19;;;;;;;0.70;0.70;;;8.90;99.90;;;;;;5090781;28;20513;-81
2022/04/20 00:42:45;;;;;;;1.67;1.02;;;8.90;99.90;;;;;;5087650;28;20028;-81
2022/04/20 00:45:12;;;;;;;1.38;1.13;;;8.90;99.90;;;;;;5089278;28;20107;-81
2022/04/20 00:47:43;;;;;;;2.08;1.08;;;8.90;99.90;;;;;;5086034;28;20032;-81
2022/04/20 00:50:10;;;;;;;2.63;1.30;;;8.90;99.90;;;;;;5087871;28;20049;-81
2022/04/20 00:52:36;;;;;;;2.85;0.93;;;8.90;99.90;;;;;;5091267;28;20035;-81
2022/04/20 00:55:02;;;;;;;0.90;0.75;;;8.90;99.90;;;;;;5088422;28;20040;-81
2022/04/20 00:57:28;;;;;;;1.15;0.82;;;8.90;99.90;;;;;;5084981;28;20111;-81
2022/04/20 00:59:57;;;;;;;1.20;1.10;;;8.90;99.90;;;;;;5087955;28;20111;-81
2022/04/20 01:02:23;;;;;;;1.52;1.02;;;8.80;99.90;;;;;;5087345;28;20032;-81
2022/04/20 01:04:49;;;;;;;1.60;1.05;;;8.80;99.90;;;;;;5090229;28;20027;-81
2022/04/20 01:07:16;;;;;;;1.08;0.85;;;8.80;99.90;;;;;;5090316;28;20020;-82
2022/04/20 01:09:44;;;;;;;0.50;0.50;;;8.80;99.90;;;;;;5086320;28;20024;-82
2022/04/20 01:12:11;;;;;;;0.50;0.50;;;8.80;99.90;;;;;;5084322;28;20058;-82
2022/04/20 01:14:36;;;;;;;0.40;0.40;;;8.80;99.90;;;;;;5086776;28;20107;-81
2022/04/20 01:17:03;;;;;;;0.45;0.45;;;8.80;99.90;;;;;;5087556;28;20099;-81
2022/04/20 01:19:40;;;;;;;0.57;0.57;;;8.80;99.90;;;;;;5070627;28;20047;-81
2022/04/20 01:22:07;;;;;;;1.25;0.57;;;8.90;99.90;;;;;;5086942;28;20028;-81
2022/04/20 01:24:35;;;;;;;0.73;0.73;;;8.90;99.90;;;;;;5083693;28;20039;-81
2022/04/20 01:27:01;;;;;;;0.52;0.52;;;8.90;99.90;;;;;;5086990;28;20035;-81
2022/04/20 01:29:28;;;;;;;0.70;0.50;;;9.00;99.90;;;;;;5086952;28;20016;-81
2022/04/20 01:31:54;;;;;;;0.60;0.50;;;8.90;99.90;;;;;;5089083;28;20199;-81
2022/04/20 01:34:20;;;;;;;0.50;0.50;;;9.00;99.90;;;;;;5090300;28;20028;-80
2022/04/20 01:36:46;;;;;;;1.17;0.80;;;8.90;99.90;;;;;;5089041;28;20028;-80
2022/04/20 01:39:12;;;;;;;2.35;1.00;;;8.90;99.90;;;;;;5088780;28;20066;-78
2022/04/20 01:41:38;;;;;;;1.20;0.90;;;8.90;99.90;;;;;;5087710;28;20497;-78
2022/04/20 01:44:04;;;;;;;1.25;0.82;;;8.90;99.90;;;;;;5088472;28;20020;-78
2022/04/20 01:46:30;;;;;;;2.15;0.82;;;8.90;99.90;;;;;;5080071;28;20024;-78
2022/04/20 01:48:56;;;;;;;0.70;0.70;;;8.80;99.90;;;;;;5086286;28;20513;-78
2022/04/20 01:54:06;;;;;;;1.17;0.80;;;8.90;99.90;;;;;;5086598;28;20031;-78
2022/04/20 01:56:31;;;;;;;1.48;1.10;;;8.80;99.90;;;;;;5086375;28;20048;-78
2022/04/20 01:58:57;;;;;;;1.52;1.13;;;8.80;99.90;;;;;;5069652;28;20017;-77
2022/04/20 02:04:07;;;;;;;1.48;0.95;;;8.90;99.90;;;;;;5085313;28;20093;-78
2022/04/20 02:06:33;;;;;;;1.45;1.20;;;8.90;99.90;;;;;;5087477;28;20028;-77
2022/04/20 02:08:59;;;;;;;2.78;1.17;;;8.90;99.90;;;;;;5088645;28;20028;-77
2022/04/20 02:11:25;;;;;;;1.70;1.00;;;8.90;99.90;;;;;;5085296;28;20024;-77
2022/04/20 02:13:50;;;;;;;1.42;1.05;;;8.90;99.90;;;;;;5089216;28;20524;-77
2022/04/20 02:16:16;;;;;;;2.10;1.48;;;8.80;99.90;;;;;;5084281;28;20565;-77
2022/04/20 02:18:42;;;;;;;2.65;1.42;;;8.90;99.90;;;;;;5087343;28;20043;-77
2022/04/20 02:21:08;;;;;;;2.40;1.20;;;8.90;99.90;;;;;;5087503;28;20024;-77
2022/04/20 02:23:34;;;;;;;1.88;1.45;;;8.90;99.90;;;;;;5085640;28;20498;-77
2022/04/20 02:25:59;;;;;;;6.20;1.80;;;8.80;99.90;;;;;;5069709;28;20132;-77
2022/04/20 02:28:25;;;;;;;2.75;1.25;;;8.80;99.90;;;;;;5078900;28;20016;-77
2022/04/20 02:30:51;;;;;;;6.50;1.67;;;8.80;99.90;;;;;;5086605;28;20122;-77
2022/04/20 02:33:16;;;;;;;6.03;1.58;;;8.80;99.90;;;;;;5091673;28;20037;-77
2022/04/20 02:35:42;;;;;;;6.40;2.42;;;8.80;99.90;;;;;;5090681;28;20101;-77
2022/04/20 02:38:10;;;;;;;4.30;1.55;;;8.80;99.90;;;;;;5088196;28;20039;-77
2022/04/20 02:40:40;;;;;;;1.02;0.85;;;8.80;99.90;;;;;;5088137;28;20035;-77
2022/04/20 02:43:06;;;;;;;1.98;1.27;;;8.70;99.90;;;;;;5085909;28;20017;-77
2022/04/20 02:45:32;;;;;;;3.13;1.30;;;8.80;99.90;;;;;;5084531;28;20047;-77
2022/04/20 02:47:59;;;;;;;2.10;0.88;;;8.80;99.90;;;;;;5079288;28;20458;-77
2022/04/20 02:50:25;;;;;;;1.35;0.60;;;8.80;99.90;;;;;;5091531;28;20027;-76
2022/04/20 02:52:50;;;;;;;1.70;0.65;;;8.90;99.90;;;;;;5092312;28;20024;-77
2022/04/20 02:55:16;;;;;;;1.38;0.70;;;8.80;99.90;;;;;;5089660;28;20048;-77
2022/04/20 02:57:42;;;;;;;0.70;0.50;;;8.80;99.90;;;;;;5084309;28;20405;-77
2022/04/20 03:00:08;;;;;;;0.40;0.40;;;8.80;99.90;;;;;;5083625;28;20044;-77
2022/04/20 03:02:34;;;;;;;2.67;0.40;;;8.80;99.90;;;;;;5088624;28;20086;-77
2022/04/20 03:04:59;;;;;;;0.52;0.45;;;8.80;99.90;;;;;;5089146;28;20417;-77
2022/04/20 03:07:25;;;;;;;3.13;0.70;;;8.80;99.90;;;;;;5090332;28;20028;-77
2022/04/20 03:09:51;;;;;;;3.03;1.05;;;8.80;99.90;;;;;;5089057;28;20495;-77
2022/04/20 03:12:16;;;;;;;1.00;0.82;;;8.80;99.90;;;;;;5088957;28;20425;-77
2022/04/20 03:14:42;;;;;;;0.65;0.65;;;8.70;99.90;;;;;;5090957;28;20038;-77
2022/04/20 03:17:08;;;;;;;1.98;0.60;;;8.80;99.90;;;;;;5088415;28;20024;-76
2022/04/20 03:19:34;;;;;;;2.78;0.70;;;8.80;99.90;;;;;;5092810;28;20028;-77
2022/04/20 03:22:00;;;;;;;0.80;0.70;;;8.70;99.90;;;;;;5090525;28;20032;-77
2022/04/20 03:24:26;;;;;;;1.38;1.00;;;8.70;99.90;;;;;;5077374;28;20028;-77
2022/04/20 03:26:51;;;;;;;0.73;0.60;;;8.70;99.90;;;;;;5077190;28;20548;-77
2022/04/20 03:29:17;;;;;;;1.80;0.90;;;8.60;99.90;;;;;;5074818;28;20032;-77
2022/04/20 03:31:43;;;;;;;1.67;0.63;;;8.60;99.90;;;;;;5088553;28;20028;-77
2022/04/20 03:34:09;;;;;;;1.13;1.00;;;8.70;99.90;;;;;;5087036;28;20038;-77
2022/04/20 03:36:35;;;;;;;1.08;0.90;;;8.70;99.90;;;;;;5089871;28;20107;-77
2022/04/20 03:39:01;;;;;;;1.90;1.35;;;8.70;99.90;;;;;;5087612;28;20036;-77
2022/04/20 03:41:27;;;;;;;1.40;1.10;;;8.70;99.90;;;;;;5090405;28;20031;-77
2022/04/20 03:43:53;;;;;;;2.42;1.35;;;8.70;99.90;;;;;;5090440;28;20409;-77
2022/04/20 03:46:19;;;;;;;1.80;1.35;;;8.70;99.90;;;;;;5086484;28;20026;-77
2022/04/20 03:48:45;;;;;;;1.27;0.98;;;8.70;99.90;;;;;;5087838;28;20444;-77
2022/04/20 03:51:11;;;;;;;0.80;0.73;;;8.70;99.90;;;;;;5085157;28;20024;-77
2022/04/20 03:53:37;;;;;;;1.20;0.52;;;8.70;99.90;;;;;;5089918;28;20531;-77
2022/04/20 03:56:04;;;;;;;1.13;0.80;;;8.70;99.90;;;;;;5090425;28;20059;-77
2022/04/20 03:58:29;;;;;;;1.20;0.60;;;8.70;99.90;;;;;;5092025;28;20047;-77
2022/04/20 04:00:55;;;;;;;1.05;0.50;;;8.70;99.90;;;;;;5089999;28;20452;-77
2022/04/20 04:03:21;;;;;;;0.50;0.50;;;8.70;99.90;;;;;;5087608;28;20038;-77
2022/04/20 04:05:47;;;;;;;0.68;0.65;;;8.70;99.90;;;;;;5086024;28;20405;-77
2022/04/20 04:08:13;;;;;;;0.50;0.50;;;8.70;99.90;;;;;;5088488;28;20051;-77
2022/04/20 04:10:39;;;;;;;0.90;0.50;;;8.70;99.90;;;;;;5091786;28;20028;-77
2022/04/20 04:13:06;;;;;;;1.40;1.08;;;8.70;99.90;;;;;;5088922;28;20024;-77
2022/04/20 04:15:33;;;;;;;1.63;0.93;;;8.70;99.90;;;;;;5074559;28;20111;-77
2022/04/20 04:18:00;;;;;;;1.55;0.80;;;8.70;99.90;;;;;;5084000;28;20026;-76
2022/04/20 04:20:28;;;;;;;2.42;1.10;;;8.80;99.90;;;;;;5089101;28;20077;-77
2022/04/20 04:22:55;;;;;;;2.20;0.93;;;8.80;99.90;;;;;;5089386;28;20089;-77
2022/04/20 04:25:21;;;;;;;1.90;1.02;;;8.80;99.90;;;;;;5090355;28;20051;-77
2022/04/20 04:27:47;;;;;;;1.42;1.05;;;8.80;99.90;;;;;;5087000;28;20493;-77
2022/04/20 04:30:13;;;;;;;1.00;0.77;;;8.80;99.90;;;;;;5084029;28;20020;-77
2022/04/20 04:32:40;;;;;;;0.82;0.70;;;8.80;99.90;;;;;;5089574;28;20020;-77
2022/04/20 04:35:07;;;;;;;0.60;0.60;;;8.70;99.90;;;;;;5088915;28;20090;-77
2022/04/20 04:37:34;;;;;;;0.80;0.60;;;8.70;99.90;;;;;;5081094;28;20024;-77
2022/04/20 04:40:00;;;;;;;1.55;0.50;;;8.70;99.90;;;;;;5089264;28;20501;-77
2022/04/20 04:42:26;;;;;;;0.75;0.60;;;8.70;99.90;;;;;;5088184;28;20289;-77
2022/04/20 04:44:53;;;;;;;1.05;0.70;;;8.70;99.90;;;;;;5078717;28;20010;-77
2022/04/20 04:50:04;;;;;;;1.70;0.73;;;8.80;99.90;;;;;;5088699;28;20085;-77
2022/04/20 04:52:29;;;;;;;1.00;0.60;;;8.80;99.90;;;;;;5058705;28;20025;-77
2022/04/20 04:54:56;;;;;;;0.98;0.80;;;8.80;99.90;;;;;;5082654;28;20059;-77
2022/04/20 04:57:21;;;;;;;0.60;0.60;;;8.80;99.90;;;;;;5087842;28;20114;-77
2022/04/20 04:59:47;;;;;;;0.80;0.55;;;8.80;99.90;;;;;;5085058;28;20099;-77
2022/04/20 05:02:13;;;;;;;1.17;0.63;;;8.80;99.90;;;;;;5086278;28;20032;-77
2022/04/20 05:04:42;;;;;;;1.30;0.60;;;8.80;99.90;;;;;;5081323;28;20024;-77
2022/04/20 05:07:09;;;;;;;0.95;0.50;;;8.80;99.90;;;;;;5085904;28;20108;-77
2022/04/20 05:09:34;;;;;;;0.55;0.55;;;8.70;99.90;;;;;;5086395;28;20493;-77
2022/04/20 05:12:01;;;;;;;0.70;0.70;;;8.70;99.90;;;;;;5086682;28;20064;-77
2022/04/20 05:14:27;;;;;;;0.60;0.40;;;8.70;99.90;;;;;;5089101;28;20024;-77
2022/04/20 05:16:52;;;;;;;0.50;0.50;;;8.80;99.90;;;;;;5089538;28;20035;-77
2022/04/20 05:19:18;;;;;;;0.65;0.52;;;8.80;99.90;;;;;;5088214;28;20020;-77
2022/04/20 05:21:44;;;;;;;2.30;0.60;;;8.80;99.90;;;;;;5077304;28;20028;-77
2022/04/20 05:24:10;;;;;;;1.70;0.70;;;8.70;99.90;;;;;;5085843;28;20429;-78
2022/04/20 05:26:35;;;;;;;1.98;0.93;;;8.70;99.90;;;;;;5086441;28;20413;-77
2022/04/20 05:29:01;;;;;;;1.83;0.80;;;8.70;99.90;;;;;;5087546;28;20095;-77
2022/04/20 05:31:27;;;;;;;1.65;0.80;;;8.70;99.90;;;;;;5086591;28;20032;-77
2022/04/20 05:33:52;;;;;;;1.10;0.70;;;8.70;99.90;;;;;;5088288;28;20023;-78
2022/04/20 05:36:18;;;;;;;0.55;0.55;;;8.70;99.90;;;;;;5081788;28;20081;-77
2022/04/20 05:41:51;;;;;;;0.50;0.50;;;8.70;99.90;;;;;;5075656;28;20020;-78
2022/04/20 05:44:17;;;;;;;0.30;0.30;;;8.70;99.90;;;;;;5085474;28;20024;-78
2022/04/20 05:46:43;;;;;;;0.50;0.50;;;8.70;99.90;;;;;;5084110;28;20301;-78
2022/04/20 05:49:09;;;;;;;0.70;0.65;;;8.70;99.90;;;;;;5085927;28;20680;-78
2022/04/20 05:51:34;;;;;;;0.73;0.52;;;8.70;99.90;;;;;;5078340;28;20028;-77
2022/04/20 05:54:00;;;;;;;1.05;0.50;;;8.70;99.90;;;;;;5084304;28;20406;-77
2022/04/20 05:56:26;;;;;;;0.47;0.45;;;8.90;99.90;;;;;;5068485;28;20399;-77
2022/04/20 05:58:52;;;;;;;0.68;0.50;;;8.80;99.90;;;;;;5083908;28;20032;-77
2022/04/20 06:01:19;;;;;;;0.85;0.60;;;8.70;99.90;;;;;;5086538;28;20067;-75
2022/04/20 06:03:45;;;;;;;1.02;0.70;;;8.80;99.90;;;;;;5084601;28;20020;-75
2022/04/20 06:06:12;;;;;;;2.85;0.80;;;8.80;99.90;;;;;;5089886;28;20080;-75
2022/04/20 06:08:38;;;;;;;3.08;1.42;;;8.80;99.90;;;;;;5086044;28;20051;-76
2022/04/20 06:11:04;;;;;;;1.75;0.90;;;8.80;99.90;;;;;;5087441;28;20391;-76
2022/04/20 06:13:30;;;;;;;1.77;0.98;;;8.80;99.90;;;;;;5062272;28;20037;-76
2022/04/20 06:15:56;;;;;;;1.80;0.98;;;8.70;99.90;;;;;;5084934;28;20082;-76
2022/04/20 06:18:22;;;;;;;2.88;1.08;;;8.70;99.90;;;;;;5092064;28;20020;-76
2022/04/20 06:20:47;;;;;;;1.42;1.05;;;8.80;99.90;;;;;;5091781;28;20103;-75
2022/04/20 06:23:13;;;;;;;1.63;1.13;;;8.90;99.90;;;;;;5076718;28;20038;-76
2022/04/20 06:25:39;;;;;;;1.70;1.33;;;8.90;99.90;;;;;;5057992;28;20021;-75
2022/04/20 06:28:06;;;;;;;2.10;1.35;;;8.90;99.90;;;;;;5087901;28;20045;-75
2022/04/20 06:30:32;;;;;;;1.48;0.95;;;8.80;99.90;;;;;;5091485;28;20077;-76
2022/04/20 06:32:57;;;;;;;2.13;1.60;;;8.80;99.90;;;;;;5090393;28;20028;-75
2022/04/20 06:35:23;;;;;;;3.85;1.73;;;8.80;99.90;;;;;;5086552;28;20498;-75
2022/04/20 06:37:50;;;;;;;3.30;2.03;;;8.80;99.90;;;;;;5092336;28;20028;-75
2022/04/20 06:40:16;;;;;;;3.30;1.88;;;8.70;99.90;;;;;;5086610;28;20103;-75
2022/04/20 06:42:42;;;;;;;3.20;1.60;;;8.80;99.90;;;;;;5082228;28;20104;-75
2022/04/20 06:45:09;;;;;;;2.65;1.73;;;8.90;99.90;;;;;;5077989;28;20030;-75
2022/04/20 06:47:35;;;;;;;1.58;1.20;;;8.80;99.90;;;;;;5068750;28;20013;-74
2022/04/20 06:50:01;;;;;;;1.50;1.20;;;8.80;99.90;;;;;;5086217;28;20020;-74
2022/04/20 07:00:39;;;;;;;3.88;2.25;;;8.90;99.90;;;;;;5082144;28;20563;-75
2022/04/20 07:03:08;;;;;;;3.15;1.83;;;8.90;99.90;;;;;;5070506;28;20037;-77
2022/04/20 07:05:35;;;;;;;4.47;2.20;;;9.00;99.90;;;;;;5072298;28;20024;-77
2022/04/20 07:08:00;;;;;;;4.00;2.05;;;9.00;99.90;;;;;;5066368;28;20440;-75
2022/04/20 07:10:27;;;;;;;3.03;1.90;;;9.00;99.90;;;;;;5071747;28;20541;-75
2022/04/20 07:12:53;;;;;;;3.33;1.88;;;9.00;99.90;;;;;;5080871;28;20024;-74
2022/04/20 07:15:20;;;;;;;2.85;1.73;;;9.00;99.90;;;;;;5086555;28;20036;-75
2022/04/20 07:17:46;;;;;;;4.72;1.90;;;9.00;99.90;;;;;;5079022;28;20020;-76
2022/04/20 07:20:17;;;;;;;3.88;1.50;;;9.00;99.90;;;;;;5080952;28;20032;-74
2022/04/20 07:22:46;;;;;;;2.35;1.40;;;9.00;99.90;;;;;;5091774;28;20016;-74
2022/04/20 07:25:12;;;;;;;2.88;1.80;;;9.00;99.90;;;;;;5081074;28;20115;-76
2022/04/20 07:27:38;;;;;;;2.05;1.48;;;9.10;99.90;;;;;;5081696;28;20478;-75
2022/04/20 07:30:04;;;;;;;1.55;1.30;;;9.20;99.90;;;;;;5064441;28;20028;-77
2022/04/20 07:32:29;;;;;;;2.45;1.35;;;9.30;99.90;;;;;;5061651;28;20107;-77
2022/04/20 07:34:55;;;;;;;3.00;1.55;;;9.30;99.90;;;;;;5072374;28;20111;-76
2022/04/20 07:37:21;;;;;;;1.85;1.30;;;9.30;99.90;;;;;;5083440;28;20038;-76
2022/04/20 07:39:47;;;;;;;2.20;1.33;;;9.30;99.90;;;;;;5086981;28;20149;-75
2022/04/20 07:42:13;;;;;;;1.13;1.00;;;9.20;99.90;;;;;;5075731;28;20028;-75
2022/04/20 07:44:39;;;;;;;1.10;0.85;;;9.20;99.90;;;;;;5075925;28;20388;-75
2022/04/20 07:47:05;;;;;;;1.05;0.95;;;9.20;99.90;;;;;;5086173;28;20032;-75
2022/04/20 07:52:19;;;;;;;1.92;1.40;;;9.20;99.90;;;;;;5087259;28;20034;-74
2022/04/20 07:54:45;;;;;;;2.13;1.30;;;9.20;99.90;;;;;;5085432;28;20020;-75
2022/04/20 07:57:14;;;;;;;1.42;1.10;;;9.20;99.90;;;;;;5089532;28;20048;-74
2022/04/20 07:59:40;;;;;;;1.90;1.20;;;9.20;99.90;;;;;;5089220;28;20111;-75
2022/04/20 08:02:06;;;;;;;1.67;1.48;;;9.20;99.90;;;;;;5088515;28;20028;-75
2022/04/20 08:04:32;;;;;;;2.95;2.22;;;9.20;99.90;;;;;;5082357;28;20016;-75
2022/04/20 08:06:58;;;;;;;4.13;3.05;;;9.30;99.90;;;;;;5069231;28;20016;-75
2022/04/20 08:09:24;;;;;;;4.63;3.38;;;9.50;99.90;;;;;;5059019;28;20509;-75
2022/04/20 08:11:50;;;;;;;2.83;2.35;;;9.50;99.90;;;;;;5072995;28;20108;-75
2022/04/20 08:14:16;;;;;;;2.80;2.33;;;9.50;99.90;;;;;;5055140;28;20050;-75
2022/04/20 08:16:43;;;;;;;2.65;2.03;;;9.60;99.90;;;;;;5070063;28;20518;-75
2022/04/20 08:19:10;;;;;;;2.80;2.00;;;9.60;99.90;;;;;;5086295;28;20059;-75
2022/04/20 08:21:36;;;;;;;3.47;2.42;;;9.70;99.90;;;;;;5085975;28;20111;-75
2022/04/20 08:24:02;;;;;;;3.00;2.30;;;9.70;99.90;;;;;;5080724;28;20051;-75
2022/04/20 08:26:28;;;;;;;3.03;2.15;;;9.60;99.90;;;;;;5056652;28;20025;-76
2022/04/20 08:28:54;;;;;;;2.72;1.60;;;9.60;99.90;;;;;;5088802;28;20542;-75
2022/04/20 08:31:19;;;;;;;3.47;2.30;;;9.60;99.90;;;;;;5089813;28;20195;-76
2022/04/20 08:33:45;;;;;;;2.67;1.73;;;9.70;99.90;;;;;;5085974;28;20048;-75
2022/04/20 08:36:12;;;;;;;3.83;2.22;;;9.70;99.90;;;;;;5077310;28;20066;-75
2022/04/20 08:38:38;;;;;;;2.92;2.00;;;9.60;99.90;;;;;;5086215;28;20129;-75
2022/04/20 08:41:04;;;;;;;3.47;2.40;;;9.50;99.90;;;;;;5055908;28;20096;-75
2022/04/20 08:43:31;;;;;;;4.75;2.28;;;9.60;99.90;;;;;;5089933;28;20027;-75
2022/04/20 08:46:01;;;;;;;3.97;2.30;;;9.70;99.90;;;;;;5085060;28;20023;-75
2022/04/20 08:48:28;;;;;;;3.95;1.90;;;9.70;99.90;;;;;;5076579;28;20032;-75
2022/04/20 08:50:54;;;;;;;3.15;1.70;;;9.70;99.90;;;;;;5087978;28;20066;-75
2022/04/20 08:53:23;;;;;;;1.95;1.30;;;9.80;99.90;;;;;;5085840;28;20027;-76
2022/04/20 08:57:15;;;;;;;2.40;1.67;;;9.80;99.90;;;;;;5085759;28;20036;-76
2022/04/20 08:58:37;;;;;;;1.80;1.35;;;9.80;99.90;;;;;;5089166;28;20038;-76
2022/04/20 09:01:04;;;;;;;2.05;1.08;;;9.90;99.90;;;;;;5076112;28;20052;-76
2022/04/20 09:03:31;;;;;;;1.10;1.00;;;10.00;99.90;;;;;;5073500;28;20031;-76
2022/04/20 09:05:57;;;;;;;1.77;1.30;;;10.00;99.90;;;;;;5074176;28;20169;-76
2022/04/20 09:08:25;;;;;;;1.30;1.20;;;10.00;99.90;;;;;;5087367;28;20525;-76
2022/04/20 09:10:52;;;;;;;2.13;1.67;;;10.10;99.90;;;;;;5088174;28;20020;-76
2022/04/20 09:13:30;;;;;;;1.55;1.33;;;10.10;99.90;;;;;;5077873;28;20078;-76
2022/04/20 09:16:14;;;;;;;1.23;1.13;;;10.30;99.90;;;;;;5082861;28;20074;-76
2022/04/20 09:18:42;;;;;;;1.08;0.73;;;10.40;99.90;;;;;;5086464;28;20100;-76
2022/04/20 09:21:10;;;;;;;1.13;1.05;;;10.40;99.90;;;;;;5084725;28;20024;-76
2022/04/20 09:23:36;;;;;;;1.60;1.20;;;10.30;99.90;;;;;;5068318;28;20048;-76
2022/04/20 09:26:14;;;;;;;2.10;1.10;;;10.30;99.90;;;;;;5066352;28;20021;-76
2022/04/20 09:28:42;;;;;;;3.03;1.30;;;10.30;99.90;;;;;;5088435;28;20024;-76
2022/04/20 09:31:10;;;;;;;2.25;1.30;;;10.30;99.90;;;;;;5084597;28;20046;-76
2022/04/20 09:33:50;;;;;;;2.72;1.90;;;10.40;99.90;;;;;;5086219;28;20020;-77
2022/04/20 09:36:35;;;;;;;3.30;1.77;;;10.30;99.90;;;;;;5072024;28;20059;-77
2022/04/20 09:39:03;;;;;;;2.10;1.30;;;10.30;99.90;;;;;;5086301;28;20033;-77
2022/04/20 09:41:29;;;;;;;1.75;1.30;;;10.20;99.90;;;;;;5070521;28;20060;-77
2022/04/20 09:44:09;;;;;;;1.50;1.40;;;10.20;99.90;;;;;;5068104;28;20067;-77
2022/04/20 09:49:34;;;;;;;4.05;1.73;;;10.30;99.90;;;;;;5092555;28;20055;-77
2022/04/20 09:52:10;;;;;;;4.47;2.60;;;10.20;99.90;;;;;;5070820;28;20506;-77
2022/04/20 09:54:36;;;;;;;2.33;1.92;;;10.20;99.90;;;;;;5077657;28;20059;-77
2022/04/20 09:57:13;;;;;;;2.92;2.10;;;10.20;99.90;;;;;;5088729;28;20016;-77
2022/04/20 09:59:55;;;;;;;3.25;1.80;;;10.20;99.90;;;;;;5088013;28;20097;-77
2022/04/20 10:02:20;;;;;;;2.75;1.90;;;10.30;99.90;;;;;;5057398;28;20094;-77
2022/04/20 10:04:48;;;;;;;2.40;1.42;;;10.40;99.90;;;;;;5081995;28;20603;-78
2022/04/20 10:07:14;;;;;;;1.92;1.30;;;10.50;99.90;;;;;;5090422;28;20024;-78
2022/04/20 10:09:40;;;;;;;3.42;1.15;;;10.50;99.90;;;;;;5088400;28;20024;-78
2022/04/20 10:12:08;;;;;;;1.10;0.90;;;10.50;99.90;;;;;;5090917;28;20551;-78
2022/04/20 10:17:25;;;;;;;1.23;0.98;;;10.60;99.90;;;;;;5088440;28;20031;-78
2022/04/20 10:19:55;;;;;;;1.70;1.10;;;10.60;99.90;;;;;;5090775;28;20028;-78
2022/04/20 10:22:23;;;;;;;2.03;1.27;;;10.80;99.90;;;;;;5090078;28;20039;-78
2022/04/20 10:24:55;;;;;;;1.70;1.20;;;10.90;99.90;;;;;;5088369;28;20095;-78
2022/04/20 10:27:28;;;;;;;1.20;1.00;;;11.10;99.90;;;;;;5090535;28;20016;-78
2022/04/20 10:30:00;;;;;;;0.98;0.98;;;11.20;99.90;;;;;;5089620;28;20454;-78
2022/04/20 10:32:37;;;;;;;0.80;0.70;;;11.20;99.90;;;;;;5082841;28;20028;-78
2022/04/20 10:35:04;;;;;;;0.93;0.80;;;11.30;99.90;;;;;;5079496;28;20029;-78
2022/04/20 10:37:30;;;;;;;0.50;0.50;;;11.40;99.90;;;;;;5089527;28;20024;-78
2022/04/20 10:40:14;;;;;;;0.50;0.47;;;11.50;99.90;;;;;;5087131;28;20127;-78
2022/04/20 10:42:40;;;;;;;1.63;1.00;;;11.50;99.90;;;;;;5087531;28;20031;-78
2022/04/20 10:45:08;;;;;;;2.40;1.70;;;11.40;99.90;;;;;;5083393;28;20076;-77
2022/04/20 10:47:34;;;;;;;2.72;2.03;;;11.30;99.90;;;;;;5087807;28;20013;-78
2022/04/20 10:50:19;;;;;;;8.77;3.70;;;11.30;99.90;;;;;;5089602;28;20036;-78
2022/04/20 10:52:58;;;;;;;5.57;3.38;;;11.30;99.90;;;;;;5087976;28;20043;-78
2022/04/20 10:55:35;;;;;;;7.25;3.33;;;11.20;99.90;;;;;;5076109;28;20045;-78
2022/04/20 10:58:15;;;;;;;4.70;2.65;;;11.30;99.90;;;;;;5087650;28;20089;-78
2022/04/20 11:00:42;;;;;;;3.95;2.17;;;11.40;99.90;;;;;;5067142;28;20032;-78
2022/04/20 11:03:10;;;;;;;3.20;1.83;;;11.40;99.90;;;;;;5074234;28;20035;-78
2022/04/20 11:05:52;;;;;;;3.30;1.83;;;11.50;99.90;;;;;;5079240;28;20028;-79
2022/04/20 11:08:18;;;;;;;1.80;1.05;;;11.70;99.90;;;;;;5089951;28;20034;-79
2022/04/20 11:18:38;;;;;;;1.58;1.15;;;11.90;99.90;;;;;;5082865;28;20477;-79
2022/04/20 11:19:50;;;;;;;1.17;0.77;;;12.20;99.90;;;;;;5084650;28;20035;-80
2022/04/20 11:22:16;;;;;;;1.52;0.70;;;12.30;99.90;;;;;;5079849;28;20059;-80
2022/04/20 11:24:42;;;;;;;1.60;0.80;;;12.30;99.90;;;;;;5090087;28;20612;-80
2022/04/20 11:27:08;;;;;;;0.40;0.40;;;12.10;99.90;;;;;;5087382;28;20145;-80
2022/04/20 11:29:35;;;;;;;0.50;0.50;;;12.10;99.90;;;;;;5085494;28;20134;-80
2022/04/20 11:32:03;;;;;;;0.95;0.50;;;12.10;99.90;;;;;;5084204;28;20517;-80
2022/04/20 11:34:33;;;;;;;0.60;0.60;;;12.00;99.90;;;;;;5077317;28;20040;-81
2022/04/20 11:37:00;;;;;;;1.35;0.68;;;11.90;99.90;;;;;;5064435;28;20040;-80
2022/04/20 11:39:28;;;;;;;0.52;0.52;;;11.90;99.90;;;;;;5080326;28;20027;-79
2022/04/20 11:42:01;;;;;;;0.40;0.40;;;12.10;99.90;;;;;;5086339;28;20515;-80
2022/04/20 11:44:31;;;;;;;0.50;0.50;;;11.90;99.90;;;;;;5087021;28;20028;-80
2022/04/20 11:47:10;;;;;;;0.35;0.35;;;11.60;99.90;;;;;;5082850;28;20058;-81
2022/04/20 11:49:48;;;;;;;0.32;0.32;;;11.60;99.90;;;;;;5089014;28;20055;-81
2022/04/20 11:52:17;;;;;;;0.30;0.30;;;11.60;99.90;;;;;;5069892;28;20572;-80
2022/04/20 11:54:45;;;;;;;0.40;0.40;;;11.60;99.90;;;;;;5063911;28;20111;-80
2022/04/20 11:57:12;;;;;;;0.40;0.40;;;11.70;99.90;;;;;;5070687;28;20066;-81
2022/04/20 11:59:49;;;;;;;0.30;0.30;;;11.70;99.90;;;;;;5080344;28;20032;-82
2022/04/20 12:02:17;;;;;;;0.80;0.80;;;11.70;99.90;;;;;;5087259;28;20048;-82
2022/04/20 12:04:44;;;;;;;1.58;1.48;;;11.60;99.90;;;;;;5091079;28;20020;-82
2022/04/20 12:07:10;;;;;;;1.90;1.80;;;11.70;99.90;;;;;;5088965;28;20023;-82
2022/04/20 12:09:40;;;;;;;6.32;3.80;;;11.80;99.90;;;;;;5085541;28;20482;-82
2022/04/20 12:12:08;;;;;;;5.70;2.72;;;11.80;99.90;;;;;;5089911;28;20039;-82
2022/04/20 12:14:38;;;;;;;5.93;2.92;;;11.70;99.90;;;;;;5089693;28;20114;-82
2022/04/20 12:17:07;;;;;;;3.90;2.30;;;11.80;99.90;;;;;;5089681;28;20024;-82
2022/04/20 12:19:33;;;;;;;4.32;2.45;;;11.80;99.90;;;;;;5091286;28;20016;-82
2022/04/20 12:22:11;;;;;;;5.82;2.55;;;11.70;99.90;;;;;;5088563;28;20035;-82
2022/04/20 12:24:37;;;;;;;2.17;1.42;;;11.80;99.90;;;;;;5080357;28;20046;-82
2022/04/20 12:27:04;;;;;;;2.22;1.65;;;12.00;99.90;;;;;;5089396;28;20032;-82
2022/04/20 12:29:32;;;;;;;2.10;1.80;;;12.00;99.90;;;;;;5089629;28;20024;-82
2022/04/20 12:31:58;;;;;;;2.35;1.58;;;12.00;99.90;;;;;;5056626;28;20056;-82
2022/04/20 12:34:28;;;;;;;2.33;1.50;;;11.90;99.90;;;;;;5090721;28;20059;-82
2022/04/20 12:36:54;;;;;;;2.33;1.35;;;11.80;99.90;;;;;;5083419;28;20482;-81
2022/04/20 12:39:26;;;;;;;0.93;0.90;;;11.90;99.90;;;;;;5086667;28;20093;-82
2022/04/20 12:42:01;;;;;;;1.45;1.00;;;11.90;99.90;;;;;;5084257;28;20032;-82
2022/04/20 12:44:35;;;;;;;2.30;0.98;;;11.90;99.90;;;;;;5088670;28;20043;-82
2022/04/20 12:47:15;;;;;;;0.70;0.70;;;12.00;99.90;;;;;;5089565;28;20082;-82
2022/04/20 12:50:04;;;;;;;1.15;0.75;;;12.00;99.90;;;;;;5090679;28;20096;-82
2022/04/20 12:52:31;;;;;;;1.08;0.98;;;12.00;99.90;;;;;;5090897;28;20024;-82
2022/04/20 12:55:09;;;;;;;0.70;0.70;;;12.10;99.90;;;;;;5088907;28;20050;-81
2022/04/20 13:03:18;;;;;;;0.50;0.50;;;12.00;99.90;;;;;;5087700;28;20042;-81
2022/04/20 13:05:44;;;;;;;0.60;0.60;;;11.90;99.90;;;;;;5088884;28;20065;-81
2022/04/20 13:08:12;;;;;;;0.50;0.50;;;11.90;99.90;;;;;;5085781;28;20102;-81
2022/04/20 13:10:40;;;;;;;0.47;0.47;;;12.00;99.90;;;;;;5089987;28;20016;-82
2022/04/20 13:13:07;;;;;;;0.73;0.50;;;12.00;99.90;;;;;;5086673;28;20024;-82
2022/04/20 13:15:34;;;;;;;0.73;0.73;;;12.10;99.90;;;;;;5075033;28;20058;-82
2022/04/20 13:18:00;;;;;;;0.52;0.52;;;11.90;99.90;;;;;;5064815;28;20531;-81
2022/04/20 13:20:28;;;;;;;0.52;0.52;;;11.90;99.90;;;;;;5085353;28;20021;-82
2022/04/20 13:22:55;;;;;;;0.57;0.52;;;11.90;99.90;;;;;;5086415;28;20020;-81
2022/04/20 13:28:05;;;;;;;0.52;0.52;;;11.90;99.90;;;;;;5080415;28;20111;-82
2022/04/20 13:30:36;;;;;;;0.60;0.60;;;11.80;99.90;;;;;;5088218;28;20027;-81
2022/04/20 13:33:05;;;;;;;0.55;0.55;;;11.80;99.90;;;;;;5078016;28;20029;-81
2022/04/20 13:35:31;;;;;;;0.43;0.43;;;11.80;99.90;;;;;;5087461;28;20066;-81
2022/04/20 13:37:58;;;;;;;1.90;0.68;;;11.80;99.90;;;;;;5088703;28;20024;-81